Ocean Glory — D5JC4 — position and weather

sailwx.info

Track history (hours):
 
Tides and Currents Weather Stations Pressure Air Temp Water Temp Dewpoint Dewpoint Depression Visibility Wind Speed Wind Dir Waves Ship Positions

Ocean Glory

Last reported at 2018-Feb-18 08:30 UTC. Time now 2018-Feb-19 16:16 UTC.
Position N 37°44' E 024°19'.

Length 190 m; draft 10.7 m.

Type: Cargo ship. MMSI: 636017058.

Date/timePositionNaut miles runAvg speedWind from/ knotsBaromVisibWave heightAir tempDewpointWater temp
2018-Feb-18 08:30N 37°44' E 024°19'1111.9
2018-Feb-18 07:37N 37°36' E 024°10'45711.3
2018-Feb-16 15:18N 36°23' E 014°45'413.0
2018-Feb-16 14:57N 36°23' E 014°40'613.2
2018-Feb-16 14:29N 36°24' E 014°33'613.0
2018-Feb-16 14:00N 36°26' E 014°25'712.9
2018-Feb-16 13:29N 36°27' E 014°17'612.9
2018-Feb-16 12:59N 36°29' E 014°09'  
2018-Feb-13 14:46N 35°59' W 005°13'415.5
2018-Feb-13 14:31N 35°59' W 005°18'714.8
2018-Feb-13 14:00N 35°57' W 005°27'26011.3
2018-Feb-12 14:58N 38°20' W 010°00'613.2
2018-Feb-12 14:30N 38°26' W 010°02'613.1
2018-Feb-12 14:00N 38°32' W 010°04'1013.3
2018-Feb-12 13:16N 38°41' W 010°07'413.4
2018-Feb-12 13:00N 38°45' W 010°07'813.3
2018-Feb-12 12:25N 38°53' W 010°07'612.8
2018-Feb-12 11:59N 38°58' W 010°06'612.7
2018-Feb-12 11:30N 39°05' W 010°06'612.7
2018-Feb-12 11:00N 39°11' W 010°06'  
2018-Feb-09 23:13N 49°44' W 003°37'711.3
2018-Feb-09 22:37N 49°47' W 003°28'2512.0
2018-Feb-09 20:30N 49°60' W 002°54'612.2
2018-Feb-09 20:01N 50°01' W 002°44'4810.7
2018-Feb-09 15:31N 50°14' W 001°32'44 9.8
2018-Feb-09 11:00N 50°25' W 000°25'611.4
2018-Feb-09 10:30N 50°27' W 000°17'1111.4
2018-Feb-09 09:30N 50°31' E 000°00'611.5
2018-Feb-09 09:00N 50°32' E 000°09'510.9
2018-Feb-09 08:30N 50°34' E 000°17'20 9.8
2018-Feb-09 06:30N 50°42' E 000°45'5 9.2
2018-Feb-09 06:00N 50°45' E 000°51'4 9.0
2018-Feb-09 05:30N 50°48' E 000°57'23 9.3
2018-Feb-09 03:00N 51°03' E 001°24'510.5
2018-Feb-09 02:30N 51°06' E 001°31'611.1
2018-Feb-09 02:00N 51°09' E 001°38'611.6
2018-Feb-09 01:30N 51°13' E 001°45'611.7
2018-Feb-09 01:00N 51°18' E 001°50'611.6
2018-Feb-09 00:30N 51°23' E 001°55'611.2
2018-Feb-09 00:00N 51°27' E 002°00'510.9
2018-Feb-08 23:31N 51°31' E 002°06'68 9.8
2018-Feb-08 16:30N 52°03' E 003°44'9 8.5
2018-Feb-08 15:30N 52°01' E 003°58'510.3
2018-Feb-08 15:00N 51°59' E 004°05'510.3
2018-Feb-08 14:30N 51°56' E 004°13'4 8.5
2018-Feb-08 14:00N 51°54' E 004°18'1 2.1
2018-Feb-08 13:30N 51°53' E 004°17'  
Track history (hours):
 
Tides and Currents Weather Stations Pressure Air Temp Water Temp Dewpoint Dewpoint Depression Visibility Wind Speed Wind Dir Waves Ship Positions

Ocean Glory

Last reported at 2018-Feb-18 08:30 UTC. Time now 2018-Feb-19 16:16 UTC.
Position N 37°44' E 024°19'.

Length 190 m; draft 10.7 m.

Type: Cargo ship. MMSI: 636017058.

Date/timePositionNaut miles runAvg speedWind from/ knotsBaromVisibWave heightAir tempDewpointWater temp
2018-Feb-18 08:30N 37°44' E 024°19'1111.9
2018-Feb-18 07:37N 37°36' E 024°10'45711.3
2018-Feb-16 15:18N 36°23' E 014°45'413.0
2018-Feb-16 14:57N 36°23' E 014°40'613.2
2018-Feb-16 14:29N 36°24' E 014°33'613.0
2018-Feb-16 14:00N 36°26' E 014°25'712.9
2018-Feb-16 13:29N 36°27' E 014°17'612.9
2018-Feb-16 12:59N 36°29' E 014°09'  
2018-Feb-13 14:46N 35°59' W 005°13'415.5
2018-Feb-13 14:31N 35°59' W 005°18'714.8
2018-Feb-13 14:00N 35°57' W 005°27'26011.3
2018-Feb-12 14:58N 38°20' W 010°00'613.2
2018-Feb-12 14:30N 38°26' W 010°02'613.1
2018-Feb-12 14:00N 38°32' W 010°04'1013.3
2018-Feb-12 13:16N 38°41' W 010°07'413.4
2018-Feb-12 13:00N 38°45' W 010°07'813.3
2018-Feb-12 12:25N 38°53' W 010°07'612.8
2018-Feb-12 11:59N 38°58' W 010°06'612.7
2018-Feb-12 11:30N 39°05' W 010°06'612.7
2018-Feb-12 11:00N 39°11' W 010°06'  
2018-Feb-09 23:13N 49°44' W 003°37'711.3
2018-Feb-09 22:37N 49°47' W 003°28'2512.0
2018-Feb-09 20:30N 49°60' W 002°54'612.2
2018-Feb-09 20:01N 50°01' W 002°44'4810.7
2018-Feb-09 15:31N 50°14' W 001°32'44 9.8
2018-Feb-09 11:00N 50°25' W 000°25'611.4
2018-Feb-09 10:30N 50°27' W 000°17'1111.4
2018-Feb-09 09:30N 50°31' E 000°00'611.5
2018-Feb-09 09:00N 50°32' E 000°09'510.9
2018-Feb-09 08:30N 50°34' E 000°17'20 9.8
2018-Feb-09 06:30N 50°42' E 000°45'5 9.2
2018-Feb-09 06:00N 50°45' E 000°51'4 9.0
2018-Feb-09 05:30N 50°48' E 000°57'23 9.3
2018-Feb-09 03:00N 51°03' E 001°24'510.5
2018-Feb-09 02:30N 51°06' E 001°31'611.1
2018-Feb-09 02:00N 51°09' E 001°38'611.6
2018-Feb-09 01:30N 51°13' E 001°45'611.7
2018-Feb-09 01:00N 51°18' E 001°50'611.6
2018-Feb-09 00:30N 51°23' E 001°55'611.2
2018-Feb-09 00:00N 51°27' E 002°00'510.9
2018-Feb-08 23:31N 51°31' E 002°06'68 9.8
2018-Feb-08 16:30N 52°03' E 003°44'9 8.5
2018-Feb-08 15:30N 52°01' E 003°58'510.3
2018-Feb-08 15:00N 51°59' E 004°05'510.3
2018-Feb-08 14:30N 51°56' E 004°13'4 8.5
2018-Feb-08 14:00N 51°54' E 004°18'1 2.1
2018-Feb-08 13:30N 51°53' E 004°17'  

Dump ship's entire track history